Time;durP1;ratioP1;P1;durP2;ratioP2;P2;SDS_P1;SDS_P2;PMS_P1;PMS_P2;Temp;Humidity;BMP_temperature;BMP_pressure;BME280_temperature;BME280_humidity;BME280_pressure;Samples;Min_cycle;Max_cycle;Signal;HPM_P1;HPM_P2
2023/07/19 00:00:53;;;;;;;1.67;0.60;;;15.90;99.90;;;;;;5020777;28;20051;-65
2023/07/19 00:03:21;;;;;;;2.47;1.13;;;15.80;99.90;;;;;;5017123;28;20092;-67
2023/07/19 00:05:48;;;;;;;8.00;1.38;;;15.80;99.90;;;;;;5018916;28;20443;-65
2023/07/19 00:08:15;;;;;;;3.00;1.02;;;15.70;99.90;;;;;;5021542;28;20105;-66
2023/07/19 00:10:42;;;;;;;1.52;0.63;;;15.70;99.90;;;;;;5017806;28;20355;-65
2023/07/19 00:13:09;;;;;;;2.13;0.80;;;15.70;99.90;;;;;;5017999;28;20461;-66
2023/07/19 00:15:36;;;;;;;2.92;0.85;;;15.70;99.90;;;;;;5021011;28;20041;-66
2023/07/19 00:18:03;;;;;;;1.30;0.70;;;15.70;99.90;;;;;;5020705;28;20465;-65
2023/07/19 00:20:30;;;;;;;7.40;0.77;;;15.70;99.90;;;;;;5022341;28;20077;-65
2023/07/19 00:22:57;;;;;;;2.70;0.77;;;15.70;99.90;;;;;;5014335;28;20049;-66
2023/07/19 00:25:24;;;;;;;9.95;1.13;;;15.60;99.90;;;;;;5021449;28;20107;-66
2023/07/19 00:27:51;;;;;;;5.60;3.28;;;15.60;99.90;;;;;;5015861;28;20108;-66
2023/07/19 00:30:18;;;;;;;3.50;0.82;;;15.70;99.90;;;;;;5021188;28;20045;-66
2023/07/19 00:32:45;;;;;;;3.22;1.25;;;15.60;99.90;;;;;;5018276;28;20091;-66
2023/07/19 00:35:12;;;;;;;4.88;1.00;;;15.60;99.90;;;;;;5020740;28;20072;-67
2023/07/19 00:37:39;;;;;;;1.83;0.55;;;15.60;99.90;;;;;;5021546;28;20322;-65
2023/07/19 00:40:06;;;;;;;2.15;0.80;;;15.60;99.90;;;;;;5020296;28;20139;-66
2023/07/19 00:42:33;;;;;;;4.82;1.30;;;15.50;99.90;;;;;;5015304;28;20049;-66
2023/07/19 00:45:00;;;;;;;1.65;0.77;;;15.50;99.90;;;;;;5022852;28;20103;-66
2023/07/19 00:47:27;;;;;;;0.90;0.80;;;15.50;99.90;;;;;;5021532;28;20046;-66
2023/07/19 00:49:54;;;;;;;5.07;1.45;;;15.40;99.90;;;;;;5020787;28;20063;-66
2023/07/19 00:52:22;;;;;;;3.42;0.80;;;15.40;99.90;;;;;;5017382;28;20092;-65
2023/07/19 00:54:49;;;;;;;3.67;1.45;;;15.40;99.90;;;;;;5017043;28;20041;-67
2023/07/19 00:57:16;;;;;;;1.85;0.88;;;15.30;99.90;;;;;;5043462;28;20399;-66
2023/07/19 00:59:43;;;;;;;10.55;2.75;;;15.30;99.90;;;;;;5014277;28;20090;-65
2023/07/19 01:02:10;;;;;;;5.38;1.00;;;15.30;99.90;;;;;;5012378;28;20045;-67
2023/07/19 01:04:40;;;;;;;;;;;15.20;99.90;;;;;;5017174;28;20499;-66
2023/07/19 01:07:07;;;;;;;4.25;0.88;;;15.20;99.90;;;;;;5015872;28;19929;-65
2023/07/19 01:09:35;;;;;;;4.65;1.00;;;15.20;99.90;;;;;;5020348;28;20039;-66
2023/07/19 01:12:02;;;;;;;2.33;0.73;;;15.20;99.90;;;;;;5048551;28;20132;-65
2023/07/19 01:14:29;;;;;;;6.43;1.15;;;15.20;99.90;;;;;;5023005;28;20049;-65
2023/07/19 01:16:56;;;;;;;3.97;0.95;;;15.10;99.90;;;;;;5009712;28;20136;-66
2023/07/19 01:19:23;;;;;;;3.13;0.85;;;15.10;99.90;;;;;;5012996;28;20344;-66
2023/07/19 01:21:55;;;;;;;3.88;1.40;;;15.10;99.90;;;;;;5020159;28;20111;-66
2023/07/19 01:24:21;;;;;;;3.63;0.90;;;15.10;99.90;;;;;;5015801;28;20050;-68
2023/07/19 01:26:48;;;;;;;4.05;1.00;;;15.00;99.90;;;;;;5017943;28;20733;-66
2023/07/19 01:29:16;;;;;;;3.78;0.88;;;15.10;99.90;;;;;;5045548;28;20096;-66
2023/07/19 01:31:43;;;;;;;0.90;0.70;;;15.00;99.90;;;;;;5015613;28;20045;-66
2023/07/19 01:34:10;;;;;;;2.53;0.70;;;15.00;99.90;;;;;;5015392;28;20037;-66
2023/07/19 01:36:37;;;;;;;3.60;1.08;;;15.00;99.90;;;;;;5013875;28;20103;-67
2023/07/19 01:39:04;;;;;;;7.88;3.13;;;15.00;99.90;;;;;;5013325;28;20487;-66
2023/07/19 01:41:31;;;;;;;3.55;1.48;;;14.90;99.90;;;;;;5018788;28;20038;-66
2023/07/19 01:43:58;;;;;;;5.10;1.23;;;14.90;99.90;;;;;;5017909;28;20049;-67
2023/07/19 01:46:25;;;;;;;7.20;1.58;;;14.90;99.90;;;;;;5013584;28;20058;-66
2023/07/19 01:48:52;;;;;;;1.92;0.77;;;14.80;99.90;;;;;;5016527;28;20073;-64
2023/07/19 01:51:19;;;;;;;4.13;1.10;;;14.80;99.90;;;;;;5012627;28;20057;-66
2023/07/19 01:53:46;;;;;;;2.22;0.93;;;14.80;99.90;;;;;;5019492;28;20037;-65
2023/07/19 01:56:14;;;;;;;6.55;1.17;;;14.80;99.90;;;;;;5016975;28;20065;-66
2023/07/19 01:58:41;;;;;;;7.93;0.70;;;14.70;99.90;;;;;;5021492;28;20070;-67
2023/07/19 02:01:08;;;;;;;2.90;1.42;;;14.70;99.90;;;;;;5006008;28;20061;-66
2023/07/19 02:03:35;;;;;;;3.58;2.38;;;14.70;99.90;;;;;;5012391;28;20041;-66
2023/07/19 02:06:02;;;;;;;4.45;1.35;;;14.70;99.90;;;;;;5016856;28;20054;-66
2023/07/19 02:08:29;;;;;;;2.80;1.23;;;14.70;99.90;;;;;;5012764;28;20045;-65
2023/07/19 02:10:56;;;;;;;5.97;1.25;;;14.70;99.90;;;;;;5011197;28;20072;-68
2023/07/19 02:13:23;;;;;;;5.00;1.65;;;14.70;99.90;;;;;;5013635;28;20104;-67
2023/07/19 02:15:50;;;;;;;3.22;1.30;;;14.70;99.90;;;;;;5027653;28;20049;-67
2023/07/19 02:18:17;;;;;;;2.92;0.85;;;14.70;99.90;;;;;;5007608;28;20411;-66
2023/07/19 02:20:50;;;;;;;6.22;1.95;;;14.70;99.90;;;;;;5020285;28;20042;-66
2023/07/19 02:23:19;;;;;;;5.38;1.08;;;14.70;99.90;;;;;;5016363;28;20077;-66
2023/07/19 02:25:49;;;;;;;6.05;1.27;;;14.70;99.90;;;;;;5014212;28;20045;-66
2023/07/19 02:28:16;;;;;;;5.18;1.65;;;14.70;99.90;;;;;;5020485;28;20103;-66
2023/07/19 02:30:45;;;;;;;3.95;1.38;;;14.70;99.90;;;;;;5018858;28;20080;-67
2023/07/19 02:33:14;;;;;;;4.55;1.33;;;14.70;99.90;;;;;;5020082;28;20493;-66
2023/07/19 02:35:42;;;;;;;3.30;1.92;;;14.80;99.90;;;;;;5015213;28;20092;-67
2023/07/19 02:38:09;;;;;;;3.30;1.30;;;14.70;99.90;;;;;;5011822;28;20639;-66
2023/07/19 02:40:37;;;;;;;10.27;2.17;;;14.70;99.90;;;;;;5050377;28;20097;-65
2023/07/19 02:43:04;;;;;;;3.38;2.38;;;14.70;99.90;;;;;;5015827;28;20065;-66
2023/07/19 02:45:34;;;;;;;6.15;1.25;;;14.70;99.90;;;;;;5013423;28;20042;-66
2023/07/19 02:48:02;;;;;;;3.85;1.13;;;14.70;99.90;;;;;;5021587;28;20053;-65
2023/07/19 02:50:29;;;;;;;7.88;1.20;;;14.70;99.90;;;;;;5018101;28;20081;-66
2023/07/19 02:52:57;;;;;;;3.30;1.55;;;14.70;99.90;;;;;;5010809;28;20056;-67
2023/07/19 02:55:24;;;;;;;4.22;1.08;;;14.70;99.90;;;;;;5003545;28;20042;-66
2023/07/19 02:57:51;;;;;;;3.28;1.02;;;14.70;99.90;;;;;;5016558;28;20453;-65
2023/07/19 03:00:18;;;;;;;2.60;1.02;;;14.70;99.90;;;;;;5049398;28;20554;-69
2023/07/19 03:02:46;;;;;;;3.30;0.80;;;14.70;99.90;;;;;;5016290;28;20053;-66
2023/07/19 03:05:15;;;;;;;6.43;1.40;;;14.60;99.90;;;;;;5021510;28;20067;-65
2023/07/19 03:07:43;;;;;;;2.58;1.35;;;14.60;99.90;;;;;;5015943;28;20261;-67
2023/07/19 03:10:10;;;;;;;3.55;1.13;;;14.60;99.90;;;;;;5019471;28;20118;-66
2023/07/19 03:12:37;;;;;;;3.85;1.23;;;14.50;99.90;;;;;;5018507;28;20045;-66
2023/07/19 03:15:05;;;;;;;1.85;1.40;;;14.50;99.90;;;;;;5047125;28;20041;-67
2023/07/19 03:17:32;;;;;;;4.40;1.95;;;14.50;99.90;;;;;;5018986;28;20054;-69
2023/07/19 03:19:59;;;;;;;3.13;1.75;;;14.50;99.90;;;;;;5012477;28;20045;-66
2023/07/19 03:22:26;;;;;;;7.65;2.10;;;14.50;99.90;;;;;;5014397;28;20064;-71
2023/07/19 03:24:53;;;;;;;5.72;2.25;;;14.50;99.90;;;;;;5012580;28;20057;-66
2023/07/19 03:27:20;;;;;;;5.57;1.92;;;14.50;99.90;;;;;;5010695;28;20516;-67
2023/07/19 03:29:47;;;;;;;2.45;1.40;;;14.50;99.90;;;;;;5017873;28;20476;-66
2023/07/19 03:32:14;;;;;;;8.30;1.90;;;14.50;99.90;;;;;;5019662;28;20049;-66
2023/07/19 03:34:41;;;;;;;3.55;1.00;;;14.50;99.90;;;;;;5053867;28;20089;-65
2023/07/19 03:37:08;;;;;;;4.45;1.30;;;14.50;99.90;;;;;;5048420;28;20056;-66
2023/07/19 03:39:35;;;;;;;4.72;2.50;;;14.50;99.90;;;;;;5018956;28;20423;-65
2023/07/19 03:42:02;;;;;;;5.63;2.40;;;14.50;99.90;;;;;;5049805;28;20104;-67
2023/07/19 03:44:29;;;;;;;6.85;1.95;;;14.50;99.90;;;;;;5019427;28;20048;-66
2023/07/19 03:46:57;;;;;;;4.75;1.60;;;14.50;99.90;;;;;;5028481;28;20049;-66
2023/07/19 03:49:24;;;;;;;3.35;1.85;;;14.50;99.90;;;;;;5010059;28;20052;-66
2023/07/19 03:51:51;;;;;;;3.58;1.63;;;14.40;99.90;;;;;;5020045;28;20046;-67
2023/07/19 03:54:19;;;;;;;7.97;1.90;;;14.40;99.90;;;;;;5018997;28;20045;-66
2023/07/19 03:56:46;;;;;;;6.45;2.85;;;14.40;99.90;;;;;;5013161;28;20473;-66
2023/07/19 03:59:13;;;;;;;10.48;3.85;;;14.40;99.90;;;;;;5046285;28;20119;-69
2023/07/19 04:01:40;;;;;;;5.93;1.58;;;14.50;99.90;;;;;;5023503;28;20057;-66
2023/07/19 04:04:07;;;;;;;4.95;1.38;;;14.50;99.90;;;;;;5014597;28;20049;-65
2023/07/19 04:06:34;;;;;;;4.35;2.30;;;14.50;99.90;;;;;;5006419;28;20090;-66
2023/07/19 04:09:01;;;;;;;5.80;1.95;;;14.40;99.90;;;;;;5015253;28;20069;-65
2023/07/19 04:11:29;;;;;;;8.02;2.00;;;14.50;99.90;;;;;;5030049;28;20108;-65
2023/07/19 04:13:56;;;;;;;4.00;1.70;;;14.50;99.90;;;;;;5015642;28;20041;-66
2023/07/19 04:16:23;;;;;;;2.08;1.33;;;14.50;99.90;;;;;;5015454;28;20404;-66
2023/07/19 04:18:50;;;;;;;2.95;1.13;;;14.50;99.90;;;;;;5048825;28;20065;-67
2023/07/19 04:21:17;;;;;;;6.22;3.42;;;14.50;99.90;;;;;;5010042;28;20049;-66
2023/07/19 04:23:46;;;;;;;5.35;1.25;;;14.50;99.90;;;;;;5041874;28;20050;-66
2023/07/19 04:26:13;;;;;;;6.10;1.20;;;14.50;99.90;;;;;;5009257;28;20049;-65
2023/07/19 04:28:40;;;;;;;2.55;1.58;;;14.50;99.90;;;;;;5028297;28;20428;-66
2023/07/19 04:31:07;;;;;;;6.65;1.50;;;14.50;99.90;;;;;;5015564;28;20049;-66
2023/07/19 04:33:34;;;;;;;3.42;1.25;;;14.50;99.90;;;;;;5043833;28;20691;-66
2023/07/19 04:36:13;;;;;;;5.55;2.22;;;14.50;99.90;;;;;;5039959;28;20443;-65
2023/07/19 04:38:42;;;;;;;5.50;1.70;;;14.50;99.90;;;;;;5003607;28;20050;-66
2023/07/19 04:41:09;;;;;;;6.25;1.80;;;14.50;99.90;;;;;;5012371;28;20140;-67
2023/07/19 04:43:37;;;;;;;8.15;1.75;;;14.40;99.90;;;;;;5026658;28;20049;-66
2023/07/19 04:46:06;;;;;;;7.47;2.35;;;14.40;99.90;;;;;;5009538;28;20045;-66
2023/07/19 04:48:34;;;;;;;7.30;2.10;;;14.40;99.90;;;;;;5019913;28;20038;-66
2023/07/19 04:51:02;;;;;;;3.78;1.45;;;14.40;99.90;;;;;;5018638;28;20061;-66
2023/07/19 04:53:28;;;;;;;2.50;1.23;;;14.40;99.90;;;;;;5013164;28;20104;-66
2023/07/19 04:55:57;;;;;;;7.35;1.40;;;14.30;99.90;;;;;;5005382;28;20045;-65
2023/07/19 04:58:27;;;;;;;;;;;14.40;99.90;;;;;;5014807;28;20136;-65
2023/07/19 05:00:54;;;;;;;5.97;2.13;;;14.40;99.90;;;;;;5044488;28;20040;-66
2023/07/19 05:03:22;;;;;;;7.18;1.33;;;14.40;99.90;;;;;;5016745;28;20049;-68
2023/07/19 05:05:49;;;;;;;9.35;2.17;;;14.40;99.90;;;;;;5015927;28;20500;-65
2023/07/19 05:08:17;;;;;;;11.98;2.08;;;14.40;99.90;;;;;;5019356;28;20057;-66
2023/07/19 05:10:44;;;;;;;13.30;2.97;;;14.40;99.90;;;;;;5048127;28;20060;-67
2023/07/19 05:13:11;;;;;;;8.38;1.88;;;14.50;99.90;;;;;;5017994;28;20099;-66
2023/07/19 05:15:38;;;;;;;5.60;2.65;;;14.50;99.90;;;;;;5012929;28;20137;-67
2023/07/19 05:18:09;;;;;;;1.45;0.75;;;14.50;99.90;;;;;;5008260;28;20517;-65
2023/07/19 05:20:36;;;;;;;13.98;3.17;;;14.50;99.90;;;;;;5013841;28;20046;-66
2023/07/19 05:23:03;;;;;;;5.53;1.98;;;14.50;99.90;;;;;;5006917;28;20077;-67
2023/07/19 05:25:30;;;;;;;7.10;3.03;;;14.50;99.90;;;;;;5022203;28;20618;-66
2023/07/19 05:27:57;;;;;;;4.25;1.30;;;14.40;99.90;;;;;;5014670;28;20046;-68
2023/07/19 05:30:24;;;;;;;8.50;1.92;;;14.50;99.90;;;;;;5018575;28;20052;-66
2023/07/19 05:32:51;;;;;;;7.22;2.42;;;14.50;99.90;;;;;;5015342;28;20069;-65
2023/07/19 05:35:18;;;;;;;7.10;1.83;;;14.50;99.90;;;;;;5008819;28;20392;-67
2023/07/19 05:37:45;;;;;;;8.13;1.65;;;14.50;99.90;;;;;;5017738;28;20462;-66
2023/07/19 05:40:13;;;;;;;5.90;2.03;;;14.50;99.90;;;;;;5014230;28;20070;-66
2023/07/19 05:42:40;;;;;;;7.53;2.90;;;14.60;99.90;;;;;;5012730;28;20045;-66
2023/07/19 05:45:08;;;;;;;11.90;2.38;;;14.60;99.90;;;;;;5019668;28;20050;-66
2023/07/19 05:47:35;;;;;;;4.38;1.67;;;14.60;99.90;;;;;;5013143;28;20458;-66
2023/07/19 05:50:02;;;;;;;5.55;2.45;;;14.60;99.90;;;;;;5019433;28;20053;-67
2023/07/19 05:52:29;;;;;;;8.05;1.85;;;14.50;99.90;;;;;;5013626;28;20096;-66
2023/07/19 05:54:56;;;;;;;6.47;2.30;;;14.50;99.90;;;;;;5012892;28;20107;-66
2023/07/19 05:57:23;;;;;;;12.90;3.63;;;14.60;99.90;;;;;;5009512;28;20396;-67
2023/07/19 05:59:49;;;;;;;15.38;2.72;;;14.60;99.90;;;;;;5015775;28;20072;-66
2023/07/19 06:02:16;;;;;;;5.70;1.75;;;14.60;99.90;;;;;;5011199;28;20041;-66
2023/07/19 06:04:45;;;;;;;5.28;1.70;;;14.60;99.90;;;;;;5015561;28;20047;-66
2023/07/19 06:07:15;;;;;;;7.15;2.25;;;14.60;99.90;;;;;;5008454;28;20161;-66
2023/07/19 06:09:42;;;;;;;8.52;2.75;;;14.70;99.90;;;;;;5012646;28;20037;-66
2023/07/19 06:12:09;;;;;;;9.68;4.13;;;14.70;99.90;;;;;;5009073;28;20065;-68
2023/07/19 06:14:36;;;;;;;6.43;1.75;;;14.70;99.90;;;;;;5010849;28;20114;-66
2023/07/19 06:17:05;;;;;;;12.07;2.40;;;14.80;99.90;;;;;;5015434;28;20037;-66
2023/07/19 06:19:32;;;;;;;7.07;2.08;;;14.80;99.90;;;;;;5014438;28;20452;-66
2023/07/19 06:21:59;;;;;;;7.20;1.98;;;14.70;99.90;;;;;;5012871;28;20042;-66
2023/07/19 06:24:26;;;;;;;5.65;2.13;;;14.70;99.90;;;;;;5011894;28;20049;-65
2023/07/19 06:26:53;;;;;;;5.95;2.13;;;14.70;99.90;;;;;;5011525;28;20168;-67
2023/07/19 06:29:22;;;;;;;5.78;1.73;;;14.70;99.90;;;;;;5019563;28;20155;-67
2023/07/19 06:31:50;;;;;;;13.07;1.98;;;14.80;99.90;;;;;;5007717;28;20104;-66
2023/07/19 06:34:17;;;;;;;4.57;2.90;;;14.80;99.90;;;;;;5007651;28;20093;-68
2023/07/19 06:36:44;;;;;;;5.80;1.58;;;14.80;99.90;;;;;;5010301;28;20073;-65
2023/07/19 06:39:10;;;;;;;7.20;2.10;;;14.80;99.90;;;;;;5015928;28;20637;-66
2023/07/19 06:41:37;;;;;;;9.80;3.15;;;14.80;99.90;;;;;;5010086;28;20077;-67
2023/07/19 06:44:05;;;;;;;7.32;2.00;;;14.90;99.90;;;;;;5005649;28;20119;-65
2023/07/19 06:46:32;;;;;;;5.50;2.30;;;14.90;99.90;;;;;;5014658;28;20111;-65
2023/07/19 06:48:59;;;;;;;8.05;1.83;;;14.90;99.90;;;;;;5011993;28;20132;-69
2023/07/19 06:51:26;;;;;;;5.88;2.65;;;14.80;99.90;;;;;;5010519;28;20421;-66
2023/07/19 06:53:53;;;;;;;4.97;1.90;;;14.90;99.90;;;;;;5014531;28;20725;-65
2023/07/19 06:56:39;;;;;;;5.95;1.63;;;14.90;99.90;;;;;;5015426;28;20049;-66
2023/07/19 06:59:06;;;;;;;5.75;2.05;;;15.00;99.90;;;;;;5011384;28;20053;-66
2023/07/19 07:01:32;;;;;;;5.38;1.70;;;15.00;99.90;;;;;;5013947;28;20069;-65
2023/07/19 07:03:59;;;;;;;6.18;1.55;;;15.00;99.90;;;;;;5018279;28;20132;-66
2023/07/19 07:06:27;;;;;;;12.90;2.92;;;15.00;99.90;;;;;;5009502;28;20295;-66
2023/07/19 07:08:54;;;;;;;10.30;2.45;;;15.00;99.90;;;;;;5009332;28;20046;-65
2023/07/19 07:11:21;;;;;;;7.82;2.97;;;15.00;99.90;;;;;;5012846;28;20053;-67
2023/07/19 07:13:48;;;;;;;11.68;3.30;;;15.00;99.90;;;;;;5011476;28;20531;-66
2023/07/19 07:16:15;;;;;;;10.48;2.30;;;15.10;99.90;;;;;;5014693;28;20066;-69
2023/07/19 07:18:42;;;;;;;9.27;2.45;;;15.10;99.90;;;;;;5016876;28;20068;-66
2023/07/19 07:21:09;;;;;;;6.88;1.80;;;15.20;99.90;;;;;;5021521;28;20099;-66
2023/07/19 07:23:36;;;;;;;8.70;1.85;;;15.30;99.90;;;;;;5015639;28;20565;-66
2023/07/19 07:26:03;;;;;;;5.88;2.13;;;15.30;99.90;;;;;;5017364;28;20049;-68
2023/07/19 07:28:30;;;;;;;6.28;2.08;;;15.40;99.90;;;;;;5015540;28;20575;-66
2023/07/19 07:30:56;;;;;;;5.57;2.35;;;15.30;99.90;;;;;;5016742;28;20115;-70
2023/07/19 07:33:23;;;;;;;7.78;2.80;;;15.40;99.90;;;;;;5015911;28;20125;-66
2023/07/19 07:35:50;;;;;;;6.75;2.35;;;15.30;99.90;;;;;;5012870;28;20060;-65
2023/07/19 07:38:17;;;;;;;5.25;1.88;;;15.30;99.90;;;;;;5011507;28;20041;-67
2023/07/19 07:40:44;;;;;;;7.88;1.98;;;15.20;99.90;;;;;;5019317;28;20060;-67
2023/07/19 07:43:11;;;;;;;5.60;2.72;;;15.30;99.90;;;;;;5020718;28;20050;-65
2023/07/19 07:45:38;;;;;;;4.18;1.83;;;15.30;99.90;;;;;;5013764;28;20041;-68
2023/07/19 07:48:05;;;;;;;5.45;2.00;;;15.30;99.90;;;;;;5020436;28;20138;-66
2023/07/19 07:50:32;;;;;;;5.65;2.42;;;15.30;99.90;;;;;;5018100;28;20053;-66
2023/07/19 07:52:59;;;;;;;7.38;2.75;;;15.10;99.90;;;;;;5021366;28;20103;-68
2023/07/19 07:55:39;;;;;;;2.97;1.60;;;15.10;99.90;;;;;;5012671;28;20362;-66
2023/07/19 07:58:06;;;;;;;4.57;2.55;;;15.10;99.90;;;;;;5019574;28;20137;-67
2023/07/19 08:00:33;;;;;;;8.02;2.10;;;15.10;99.90;;;;;;5017905;28;20045;-66
2023/07/19 08:02:59;;;;;;;6.45;1.83;;;15.10;99.90;;;;;;5013194;28;20049;-67
2023/07/19 08:05:27;;;;;;;9.35;3.00;;;15.20;99.90;;;;;;5017012;28;20037;-66
2023/07/19 08:07:53;;;;;;;8.52;1.75;;;15.40;99.90;;;;;;5015864;28;20054;-65
2023/07/19 08:10:20;;;;;;;10.20;2.53;;;15.60;99.90;;;;;;5022236;28;20040;-69
2023/07/19 08:12:47;;;;;;;4.20;2.17;;;15.60;99.90;;;;;;5012210;28;20073;-67
2023/07/19 08:15:14;;;;;;;8.48;2.60;;;15.80;99.90;;;;;;5023028;28;20443;-66
2023/07/19 08:17:41;;;;;;;6.05;1.95;;;15.80;99.90;;;;;;5012016;28;20084;-66
2023/07/19 08:20:09;;;;;;;9.27;2.13;;;16.00;99.90;;;;;;5017322;28;20389;-68
2023/07/19 08:22:39;;;;;;;3.88;2.15;;;16.20;99.90;;;;;;5007338;28;20487;-67
2023/07/19 08:25:07;;;;;;;3.78;1.27;;;16.40;99.90;;;;;;5014283;28;20048;-66
2023/07/19 08:27:51;;;;;;;4.45;2.33;;;16.40;99.90;;;;;;5015046;28;20075;-67
2023/07/19 08:30:18;;;;;;;8.02;2.95;;;16.60;99.90;;;;;;5016770;28;20080;-68
2023/07/19 08:32:46;;;;;;;6.28;1.77;;;16.60;99.90;;;;;;5009804;28;20073;-67
2023/07/19 08:35:16;;;;;;;9.57;2.00;;;16.50;99.90;;;;;;5015227;28;20132;-67
2023/07/19 08:37:44;;;;;;;;;;;16.50;99.90;;;;;;5013871;28;20034;-66
2023/07/19 08:40:13;;;;;;;5.68;2.65;;;16.50;99.90;;;;;;5015215;28;19932;-66
2023/07/19 08:42:41;;;;;;;8.10;2.78;;;16.60;99.90;;;;;;5010155;28;20424;-66
2023/07/19 08:45:10;;;;;;;3.55;2.00;;;16.60;99.90;;;;;;5010280;28;20111;-67
2023/07/19 08:47:39;;;;;;;4.28;2.22;;;16.60;99.90;;;;;;5022285;28;20136;-66
2023/07/19 08:50:07;;;;;;;10.68;4.05;;;16.70;99.90;;;;;;5011205;28;20046;-66
2023/07/19 08:52:34;;;;;;;2.85;2.03;;;16.90;99.90;;;;;;5018657;28;20557;-66
2023/07/19 08:55:03;;;;;;;3.13;1.60;;;16.80;99.90;;;;;;5011623;28;20048;-66
2023/07/19 08:57:30;;;;;;;6.57;1.73;;;16.80;99.90;;;;;;5014554;28;20482;-66
2023/07/19 08:59:57;;;;;;;5.10;2.17;;;16.70;99.90;;;;;;5013786;28;20537;-66
2023/07/19 09:02:25;;;;;;;9.27;3.33;;;16.70;99.90;;;;;;5012624;28;20129;-67
2023/07/19 09:05:10;;;;;;;4.57;1.67;;;16.70;99.90;;;;;;5012521;28;20076;-67
2023/07/19 09:07:39;;;;;;;6.15;1.77;;;16.70;99.90;;;;;;5013288;28;20210;-67
2023/07/19 09:10:08;;;;;;;4.03;1.95;;;16.70;99.90;;;;;;5014878;28;20045;-67
2023/07/19 09:12:42;;;;;;;9.98;2.85;;;16.80;99.90;;;;;;5019450;28;20046;-66
2023/07/19 09:15:12;;;;;;;4.88;1.95;;;16.70;99.90;;;;;;5018290;28;20087;-69
2023/07/19 09:17:43;;;;;;;6.30;1.67;;;16.70;99.90;;;;;;5013058;28;20045;-66
2023/07/19 09:20:12;;;;;;;5.00;1.77;;;16.70;99.90;;;;;;5021270;28;20314;-67
2023/07/19 09:22:40;;;;;;;7.30;2.75;;;16.80;99.90;;;;;;5011687;28;20107;-66
2023/07/19 09:25:11;;;;;;;8.57;2.67;;;16.70;99.90;;;;;;5014936;28;20053;-66
2023/07/19 09:27:41;;;;;;;2.78;1.52;;;16.70;99.90;;;;;;5012120;28;20499;-66
2023/07/19 09:30:09;;;;;;;;;;;16.70;99.90;;;;;;5018074;28;20137;-67
2023/07/19 09:32:37;;;;;;;3.65;1.33;;;16.70;99.90;;;;;;5016979;28;20012;-66
2023/07/19 09:35:05;;;;;;;6.95;1.88;;;16.60;99.90;;;;;;5017414;28;20115;-66
2023/07/19 09:37:32;;;;;;;11.15;3.28;;;16.70;99.90;;;;;;5009530;28;20104;-67
2023/07/19 09:40:01;;;;;;;6.75;2.60;;;16.70;99.90;;;;;;5010598;28;20052;-67
2023/07/19 09:42:30;;;;;;;5.05;1.70;;;16.80;99.90;;;;;;5005225;28;20038;-70
2023/07/19 09:44:59;;;;;;;9.85;4.15;;;16.90;99.90;;;;;;5016003;28;20050;-65
2023/07/19 09:47:26;;;;;;;5.25;2.25;;;16.90;99.90;;;;;;5016125;28;20547;-67
2023/07/19 09:49:56;;;;;;;7.88;1.70;;;16.90;99.90;;;;;;5012533;28;20045;-66
2023/07/19 09:52:25;;;;;;;3.20;1.60;;;16.90;99.90;;;;;;5014027;28;20033;-66
2023/07/19 09:54:53;;;;;;;4.72;1.67;;;17.10;99.90;;;;;;5015177;28;20041;-67
2023/07/19 09:57:25;;;;;;;3.45;1.42;;;17.30;99.90;;;;;;5009035;28;20042;-67
2023/07/19 09:59:53;;;;;;;3.97;1.52;;;17.40;99.90;;;;;;5012494;28;20054;-66
2023/07/19 10:02:24;;;;;;;5.53;1.55;;;17.50;99.90;;;;;;5019845;28;20084;-68
2023/07/19 10:04:51;;;;;;;3.13;1.58;;;17.70;99.90;;;;;;5016840;28;20558;-66
2023/07/19 10:07:20;;;;;;;9.27;1.95;;;17.70;99.90;;;;;;5014574;28;20522;-66
2023/07/19 10:09:49;;;;;;;7.05;2.20;;;17.80;99.90;;;;;;5015701;28;20049;-69
2023/07/19 10:12:16;;;;;;;2.75;1.17;;;17.80;99.90;;;;;;5013936;28;20037;-66
2023/07/19 10:15:07;;;;;;;4.28;1.60;;;17.80;99.90;;;;;;5009076;28;20046;-66
2023/07/19 10:17:52;;;;;;;5.97;1.92;;;18.10;99.90;;;;;;5009156;28;20065;-65
2023/07/19 10:20:58;;;;;;;2.63;2.17;;;18.30;99.90;;;;;;5012949;28;20042;-67
2023/07/19 10:23:25;;;;;;;6.63;1.90;;;18.40;99.90;;;;;;5015255;28;20155;-68
2023/07/19 10:25:51;;;;;;;4.00;1.13;;;18.50;99.90;;;;;;5011999;28;20097;-68
2023/07/19 10:28:30;;;;;;;7.40;1.48;;;18.50;99.90;;;;;;5016732;28;20061;-68
2023/07/19 10:31:02;;;;;;;2.92;1.73;;;18.40;99.90;;;;;;5014344;28;20033;-69
2023/07/19 10:33:53;;;;;;;3.08;1.30;;;18.30;99.90;;;;;;5010065;28;20116;-67
2023/07/19 10:36:20;;;;;;;6.80;1.67;;;18.10;99.90;;;;;;5015798;28;20477;-68
2023/07/19 10:38:48;;;;;;;7.72;1.35;;;18.00;99.90;;;;;;5018591;28;20120;-66
2023/07/19 10:41:17;;;;;;;3.42;1.27;;;18.00;99.90;;;;;;5014040;28;20053;-66
2023/07/19 10:43:44;;;;;;;1.98;1.63;;;17.90;99.90;;;;;;5012178;28;20064;-66
2023/07/19 10:46:18;;;;;;;3.70;1.50;;;17.90;99.90;;;;;;5013418;28;20049;-66
2023/07/19 10:48:58;;;;;;;6.75;1.50;;;17.90;99.90;;;;;;5011870;28;20037;-67
2023/07/19 10:51:25;;;;;;;4.28;1.52;;;17.80;99.90;;;;;;5021081;28;20454;-66
2023/07/19 10:53:56;;;;;;;5.57;1.17;;;17.80;99.90;;;;;;5023116;28;20049;-69
2023/07/19 10:56:25;;;;;;;3.63;1.30;;;17.90;99.90;;;;;;5008315;28;20470;-66
2023/07/19 10:58:59;;;;;;;5.50;1.52;;;17.90;99.90;;;;;;5021552;28;20142;-67
2023/07/19 11:01:29;;;;;;;4.40;1.83;;;18.00;99.90;;;;;;5021974;28;20042;-66
2023/07/19 11:04:02;;;;;;;3.17;1.27;;;17.70;99.90;;;;;;5023406;28;20099;-67
2023/07/19 11:06:30;;;;;;;2.58;1.30;;;17.80;99.90;;;;;;5016712;28;20096;-68
2023/07/19 11:09:10;;;;;;;5.05;1.70;;;17.80;99.90;;;;;;5017240;28;20061;-67
2023/07/19 11:11:38;;;;;;;2.75;1.63;;;17.80;99.90;;;;;;5022516;28;20081;-66
2023/07/19 11:14:06;;;;;;;5.78;1.85;;;17.70;99.90;;;;;;5016399;28;20045;-67
2023/07/19 11:16:33;;;;;;;4.90;1.48;;;17.50;99.90;;;;;;5023842;28;20061;-67
2023/07/19 11:19:00;;;;;;;4.93;1.48;;;17.60;99.90;;;;;;5023349;28;20334;-66
2023/07/19 11:21:28;;;;;;;4.43;1.92;;;17.30;99.90;;;;;;5021960;28;20041;-66
2023/07/19 11:23:55;;;;;;;3.55;2.05;;;17.30;99.90;;;;;;5012504;28;20045;-66
2023/07/19 11:26:22;;;;;;;4.60;1.42;;;17.40;99.90;;;;;;5016043;28;20590;-67
2023/07/19 11:28:57;;;;;;;6.65;1.52;;;17.50;99.90;;;;;;5012268;28;20038;-66
2023/07/19 11:31:34;;;;;;;6.05;2.38;;;17.60;99.90;;;;;;5015739;28;20045;-67
2023/07/19 11:34:13;;;;;;;4.53;1.38;;;17.60;99.90;;;;;;5019547;28;20154;-68
2023/07/19 11:36:42;;;;;;;5.80;1.73;;;17.50;99.90;;;;;;5011573;28;20037;-67
2023/07/19 11:39:21;;;;;;;9.35;3.08;;;17.60;99.90;;;;;;5008561;28;20048;-69
2023/07/19 11:41:49;;;;;;;6.32;3.70;;;17.60;99.90;;;;;;5017814;28;20041;-66
2023/07/19 11:44:17;;;;;;;4.13;1.55;;;17.50;99.90;;;;;;5019295;28;20037;-67
2023/07/19 11:46:45;;;;;;;7.70;2.38;;;17.50;99.90;;;;;;5013416;28;20051;-68
2023/07/19 11:49:12;;;;;;;5.95;2.22;;;17.60;99.90;;;;;;5013763;28;20128;-68
2023/07/19 11:51:40;;;;;;;6.40;1.75;;;17.70;99.90;;;;;;5013090;28;20064;-66
2023/07/19 11:54:07;;;;;;;8.07;1.95;;;17.90;99.90;;;;;;5010865;28;20046;-67
2023/07/19 11:56:35;;;;;;;6.15;2.30;;;18.00;99.90;;;;;;5009204;28;20108;-67
2023/07/19 11:59:02;;;;;;;2.28;1.40;;;18.10;99.90;;;;;;5012699;28;20149;-66
2023/07/19 12:01:29;;;;;;;2.65;1.08;;;17.90;99.90;;;;;;5013801;28;20072;-67
2023/07/19 12:04:01;;;;;;;3.75;1.33;;;18.00;99.90;;;;;;5018129;28;20400;-67
2023/07/19 12:06:29;;;;;;;7.65;1.30;;;18.00;99.90;;;;;;5019707;28;20083;-68
2023/07/19 12:08:56;;;;;;;4.70;1.45;;;18.10;99.90;;;;;;5020197;28;20104;-67
2023/07/19 12:11:24;;;;;;;3.25;1.63;;;18.10;99.90;;;;;;5012340;28;20041;-68
2023/07/19 12:13:51;;;;;;;5.70;1.70;;;18.00;99.90;;;;;;5013791;28;20050;-69
2023/07/19 12:16:18;;;;;;;3.10;1.27;;;18.00;99.90;;;;;;5018496;28;20053;-67
2023/07/19 12:18:45;;;;;;;5.68;1.33;;;17.90;99.90;;;;;;5009996;28;20385;-67
2023/07/19 12:21:12;;;;;;;4.53;1.52;;;18.00;99.90;;;;;;5017566;28;20051;-69
2023/07/19 12:23:40;;;;;;;1.52;1.33;;;17.90;99.90;;;;;;5019208;28;20042;-66
2023/07/19 12:26:09;;;;;;;3.42;1.00;;;17.80;99.90;;;;;;5017178;28;20107;-66
2023/07/19 12:28:36;;;;;;;4.97;1.50;;;17.80;99.90;;;;;;5008394;28;20499;-69
2023/07/19 12:31:03;;;;;;;3.65;1.45;;;17.70;99.90;;;;;;5018682;28;20038;-66
2023/07/19 12:33:30;;;;;;;2.45;1.33;;;17.80;99.90;;;;;;5012536;28;20117;-67
2023/07/19 12:35:57;;;;;;;4.88;1.13;;;17.90;99.90;;;;;;5014980;28;20053;-68
2023/07/19 12:38:24;;;;;;;3.58;1.50;;;17.80;99.90;;;;;;5016236;28;20073;-68
2023/07/19 12:40:51;;;;;;;5.32;1.30;;;17.90;99.90;;;;;;5015268;28;20042;-66
2023/07/19 12:43:18;;;;;;;6.35;1.10;;;18.00;99.90;;;;;;5017295;28;20050;-66
2023/07/19 12:45:44;;;;;;;5.45;1.73;;;18.10;99.90;;;;;;5012914;28;20132;-67
2023/07/19 12:48:11;;;;;;;3.22;1.67;;;18.20;99.90;;;;;;5017423;28;20038;-66
2023/07/19 12:50:38;;;;;;;1.75;1.27;;;18.40;99.90;;;;;;5012413;28;20293;-68
2023/07/19 12:53:05;;;;;;;4.45;1.15;;;18.40;99.90;;;;;;5014100;28;20038;-67